sensor_id;sensor_type;location;lat;lon;timestamp;P1;durP1;ratioP1;P2;durP2;ratioP2
34230;SDS011;21574;51.538;-0.084;2022-09-25T00:00:18;1.95;;;1.00;;
34230;SDS011;21574;51.538;-0.084;2022-09-25T00:02:44;4.38;;;1.20;;
34230;SDS011;21574;51.538;-0.084;2022-09-25T00:05:09;2.53;;;1.40;;
34230;SDS011;21574;51.538;-0.084;2022-09-25T00:07:35;1.95;;;1.15;;
34230;SDS011;21574;51.538;-0.084;2022-09-25T00:10:01;2.40;;;1.15;;
34230;SDS011;21574;51.538;-0.084;2022-09-25T00:12:26;4.65;;;1.17;;
34230;SDS011;21574;51.538;-0.084;2022-09-25T00:14:52;1.50;;;0.90;;
34230;SDS011;21574;51.538;-0.084;2022-09-25T00:17:18;2.00;;;1.30;;
34230;SDS011;21574;51.538;-0.084;2022-09-25T00:19:43;2.03;;;0.95;;
34230;SDS011;21574;51.538;-0.084;2022-09-25T00:22:16;1.60;;;1.10;;
34230;SDS011;21574;51.538;-0.084;2022-09-25T00:24:45;2.80;;;1.17;;
34230;SDS011;21574;51.538;-0.084;2022-09-25T00:27:11;2.90;;;1.20;;
34230;SDS011;21574;51.538;-0.084;2022-09-25T00:29:38;2.60;;;1.10;;
34230;SDS011;21574;51.538;-0.084;2022-09-25T00:32:04;1.92;;;1.02;;
34230;SDS011;21574;51.538;-0.084;2022-09-25T00:34:31;1.40;;;1.20;;
34230;SDS011;21574;51.538;-0.084;2022-09-25T00:36:57;2.13;;;1.02;;
34230;SDS011;21574;51.538;-0.084;2022-09-25T00:39:23;2.38;;;1.20;;
34230;SDS011;21574;51.538;-0.084;2022-09-25T00:41:49;2.55;;;1.23;;
34230;SDS011;21574;51.538;-0.084;2022-09-25T00:47:09;1.90;;;1.17;;
34230;SDS011;21574;51.538;-0.084;2022-09-25T00:49:37;2.45;;;1.40;;
34230;SDS011;21574;51.538;-0.084;2022-09-25T00:52:03;3.70;;;1.20;;
34230;SDS011;21574;51.538;-0.084;2022-09-25T00:54:35;1.88;;;1.05;;
34230;SDS011;21574;51.538;-0.084;2022-09-25T00:57:04;1.92;;;1.05;;
34230;SDS011;21574;51.538;-0.084;2022-09-25T00:59:34;1.77;;;1.00;;
34230;SDS011;21574;51.538;-0.084;2022-09-25T01:02:09;2.42;;;1.25;;
34230;SDS011;21574;51.538;-0.084;2022-09-25T01:04:38;1.88;;;0.95;;
34230;SDS011;21574;51.538;-0.084;2022-09-25T01:07:06;2.28;;;1.10;;
34230;SDS011;21574;51.538;-0.084;2022-09-25T01:09:32;1.75;;;1.00;;
34230;SDS011;21574;51.538;-0.084;2022-09-25T01:14:25;1.55;;;1.00;;
34230;SDS011;21574;51.538;-0.084;2022-09-25T01:17:00;1.50;;;0.77;;
34230;SDS011;21574;51.538;-0.084;2022-09-25T01:22:20;3.33;;;1.20;;
34230;SDS011;21574;51.538;-0.084;2022-09-25T01:27:36;2.42;;;1.17;;
34230;SDS011;21574;51.538;-0.084;2022-09-25T01:30:25;2.75;;;1.08;;
34230;SDS011;21574;51.538;-0.084;2022-09-25T01:32:56;2.25;;;1.20;;
34230;SDS011;21574;51.538;-0.084;2022-09-25T01:38:39;1.75;;;0.95;;
34230;SDS011;21574;51.538;-0.084;2022-09-25T01:41:22;2.83;;;1.13;;
34230;SDS011;21574;51.538;-0.084;2022-09-25T01:46:28;1.40;;;0.98;;
34230;SDS011;21574;51.538;-0.084;2022-09-25T01:48:58;3.35;;;1.00;;
34230;SDS011;21574;51.538;-0.084;2022-09-25T01:51:48;1.70;;;1.00;;
34230;SDS011;21574;51.538;-0.084;2022-09-25T01:54:20;2.70;;;1.00;;
34230;SDS011;21574;51.538;-0.084;2022-09-25T01:59:30;2.85;;;1.08;;
34230;SDS011;21574;51.538;-0.084;2022-09-25T02:02:28;2.15;;;0.93;;
34230;SDS011;21574;51.538;-0.084;2022-09-25T02:05:02;2.20;;;1.10;;
34230;SDS011;21574;51.538;-0.084;2022-09-25T02:07:34;2.55;;;1.10;;
34230;SDS011;21574;51.538;-0.084;2022-09-25T02:10:27;1.73;;;0.80;;
34230;SDS011;21574;51.538;-0.084;2022-09-25T02:13:15;2.65;;;0.98;;
34230;SDS011;21574;51.538;-0.084;2022-09-25T02:15:49;6.78;;;0.90;;
34230;SDS011;21574;51.538;-0.084;2022-09-25T02:18:24;2.25;;;1.02;;
34230;SDS011;21574;51.538;-0.084;2022-09-25T02:27:05;2.58;;;1.20;;
34230;SDS011;21574;51.538;-0.084;2022-09-25T02:29:31;1.98;;;0.90;;
34230;SDS011;21574;51.538;-0.084;2022-09-25T02:31:58;2.47;;;1.00;;
34230;SDS011;21574;51.538;-0.084;2022-09-25T02:34:30;2.10;;;0.88;;
34230;SDS011;21574;51.538;-0.084;2022-09-25T02:36:56;1.75;;;0.95;;
34230;SDS011;21574;51.538;-0.084;2022-09-25T02:39:22;1.52;;;0.80;;
34230;SDS011;21574;51.538;-0.084;2022-09-25T02:47:31;3.42;;;1.00;;
34230;SDS011;21574;51.538;-0.084;2022-09-25T02:52:35;1.98;;;1.05;;
34230;SDS011;21574;51.538;-0.084;2022-09-25T03:00:49;1.95;;;0.82;;
34230;SDS011;21574;51.538;-0.084;2022-09-25T03:03:17;1.67;;;0.95;;
34230;SDS011;21574;51.538;-0.084;2022-09-25T03:05:45;2.65;;;1.20;;
34230;SDS011;21574;51.538;-0.084;2022-09-25T03:08:13;2.53;;;1.23;;
34230;SDS011;21574;51.538;-0.084;2022-09-25T03:10:57;1.65;;;0.85;;
34230;SDS011;21574;51.538;-0.084;2022-09-25T03:13:24;1.80;;;0.63;;
34230;SDS011;21574;51.538;-0.084;2022-09-25T03:15:56;3.25;;;0.90;;
34230;SDS011;21574;51.538;-0.084;2022-09-25T03:18:28;1.77;;;1.00;;
34230;SDS011;21574;51.538;-0.084;2022-09-25T03:20:55;1.88;;;1.00;;
34230;SDS011;21574;51.538;-0.084;2022-09-25T03:23:21;2.08;;;1.00;;
34230;SDS011;21574;51.538;-0.084;2022-09-25T03:25:47;1.13;;;0.80;;
34230;SDS011;21574;51.538;-0.084;2022-09-25T03:28:12;1.77;;;0.80;;
34230;SDS011;21574;51.538;-0.084;2022-09-25T03:30:38;1.85;;;0.90;;
34230;SDS011;21574;51.538;-0.084;2022-09-25T03:33:07;3.78;;;0.93;;
34230;SDS011;21574;51.538;-0.084;2022-09-25T03:35:37;1.73;;;0.80;;
34230;SDS011;21574;51.538;-0.084;2022-09-25T03:38:03;2.42;;;0.80;;
34230;SDS011;21574;51.538;-0.084;2022-09-25T03:40:32;4.35;;;1.30;;
34230;SDS011;21574;51.538;-0.084;2022-09-25T03:42:58;4.95;;;1.00;;
34230;SDS011;21574;51.538;-0.084;2022-09-25T03:45:23;4.15;;;1.00;;
34230;SDS011;21574;51.538;-0.084;2022-09-25T03:47:49;3.60;;;0.90;;
34230;SDS011;21574;51.538;-0.084;2022-09-25T03:50:14;1.90;;;0.73;;
34230;SDS011;21574;51.538;-0.084;2022-09-25T03:52:40;2.80;;;0.98;;
34230;SDS011;21574;51.538;-0.084;2022-09-25T03:55:06;2.97;;;0.90;;
34230;SDS011;21574;51.538;-0.084;2022-09-25T03:57:31;1.42;;;0.68;;
34230;SDS011;21574;51.538;-0.084;2022-09-25T03:59:58;3.83;;;0.90;;
34230;SDS011;21574;51.538;-0.084;2022-09-25T04:02:26;2.00;;;0.80;;
34230;SDS011;21574;51.538;-0.084;2022-09-25T04:04:52;2.67;;;0.97;;
34230;SDS011;21574;51.538;-0.084;2022-09-25T04:07:19;2.53;;;0.93;;
34230;SDS011;21574;51.538;-0.084;2022-09-25T04:09:45;2.70;;;0.90;;
34230;SDS011;21574;51.538;-0.084;2022-09-25T04:12:11;2.75;;;1.00;;
34230;SDS011;21574;51.538;-0.084;2022-09-25T04:14:36;2.33;;;0.82;;
34230;SDS011;21574;51.538;-0.084;2022-09-25T04:17:02;2.10;;;0.77;;
34230;SDS011;21574;51.538;-0.084;2022-09-25T04:19:29;2.13;;;0.85;;
34230;SDS011;21574;51.538;-0.084;2022-09-25T04:21:54;1.85;;;0.80;;
34230;SDS011;21574;51.538;-0.084;2022-09-25T04:24:20;2.40;;;1.20;;
34230;SDS011;21574;51.538;-0.084;2022-09-25T04:27:04;2.88;;;0.80;;
34230;SDS011;21574;51.538;-0.084;2022-09-25T04:29:30;1.10;;;0.68;;
34230;SDS011;21574;51.538;-0.084;2022-09-25T04:31:56;3.38;;;0.93;;
34230;SDS011;21574;51.538;-0.084;2022-09-25T04:34:40;1.95;;;0.80;;
34230;SDS011;21574;51.538;-0.084;2022-09-25T04:37:06;2.10;;;1.00;;
34230;SDS011;21574;51.538;-0.084;2022-09-25T04:39:31;3.03;;;0.90;;
34230;SDS011;21574;51.538;-0.084;2022-09-25T04:41:57;1.55;;;0.70;;
34230;SDS011;21574;51.538;-0.084;2022-09-25T04:44:22;1.65;;;0.73;;
34230;SDS011;21574;51.538;-0.084;2022-09-25T04:46:48;1.63;;;0.63;;
34230;SDS011;21574;51.538;-0.084;2022-09-25T04:49:14;1.63;;;0.80;;
34230;SDS011;21574;51.538;-0.084;2022-09-25T04:51:40;1.80;;;0.77;;
34230;SDS011;21574;51.538;-0.084;2022-09-25T04:54:06;3.20;;;0.90;;
34230;SDS011;21574;51.538;-0.084;2022-09-25T04:56:31;2.58;;;1.00;;
34230;SDS011;21574;51.538;-0.084;2022-09-25T04:58:57;1.90;;;0.77;;
34230;SDS011;21574;51.538;-0.084;2022-09-25T05:01:22;2.53;;;0.70;;
34230;SDS011;21574;51.538;-0.084;2022-09-25T05:03:48;1.60;;;0.60;;
34230;SDS011;21574;51.538;-0.084;2022-09-25T05:06:15;6.63;;;0.88;;
34230;SDS011;21574;51.538;-0.084;2022-09-25T05:08:40;1.90;;;0.90;;
34230;SDS011;21574;51.538;-0.084;2022-09-25T05:11:06;4.65;;;0.80;;
34230;SDS011;21574;51.538;-0.084;2022-09-25T05:13:32;2.05;;;0.85;;
34230;SDS011;21574;51.538;-0.084;2022-09-25T05:15:57;5.88;;;0.90;;
34230;SDS011;21574;51.538;-0.084;2022-09-25T05:18:23;2.65;;;1.00;;
34230;SDS011;21574;51.538;-0.084;2022-09-25T05:20:49;2.03;;;0.90;;
34230;SDS011;21574;51.538;-0.084;2022-09-25T05:23:17;1.40;;;0.50;;
34230;SDS011;21574;51.538;-0.084;2022-09-25T05:25:43;17.10;;;1.25;;
34230;SDS011;21574;51.538;-0.084;2022-09-25T05:28:14;4.07;;;0.77;;
34230;SDS011;21574;51.538;-0.084;2022-09-25T05:30:40;3.08;;;0.73;;
34230;SDS011;21574;51.538;-0.084;2022-09-25T05:33:07;1.85;;;0.65;;
34230;SDS011;21574;51.538;-0.084;2022-09-25T05:35:33;1.95;;;0.70;;
34230;SDS011;21574;51.538;-0.084;2022-09-25T05:37:59;2.88;;;0.75;;
34230;SDS011;21574;51.538;-0.084;2022-09-25T05:40:25;4.30;;;0.60;;
34230;SDS011;21574;51.538;-0.084;2022-09-25T05:42:51;1.30;;;0.47;;
34230;SDS011;21574;51.538;-0.084;2022-09-25T05:45:17;2.33;;;0.70;;
34230;SDS011;21574;51.538;-0.084;2022-09-25T05:47:44;2.88;;;0.70;;
34230;SDS011;21574;51.538;-0.084;2022-09-25T05:50:11;4.65;;;0.68;;
34230;SDS011;21574;51.538;-0.084;2022-09-25T05:52:38;2.30;;;0.65;;
34230;SDS011;21574;51.538;-0.084;2022-09-25T05:55:04;1.77;;;0.70;;
34230;SDS011;21574;51.538;-0.084;2022-09-25T05:57:32;1.35;;;0.90;;
34230;SDS011;21574;51.538;-0.084;2022-09-25T05:59:58;3.97;;;0.80;;
34230;SDS011;21574;51.538;-0.084;2022-09-25T06:02:24;1.70;;;0.65;;
34230;SDS011;21574;51.538;-0.084;2022-09-25T06:04:49;1.35;;;0.73;;
34230;SDS011;21574;51.538;-0.084;2022-09-25T06:07:15;1.20;;;0.70;;
34230;SDS011;21574;51.538;-0.084;2022-09-25T06:09:40;1.70;;;0.70;;
34230;SDS011;21574;51.538;-0.084;2022-09-25T06:12:06;2.58;;;0.80;;
34230;SDS011;21574;51.538;-0.084;2022-09-25T06:14:32;2.45;;;0.73;;
34230;SDS011;21574;51.538;-0.084;2022-09-25T06:16:59;4.25;;;0.82;;
34230;SDS011;21574;51.538;-0.084;2022-09-25T06:19:25;1.92;;;0.93;;
34230;SDS011;21574;51.538;-0.084;2022-09-25T06:21:53;2.45;;;0.80;;
34230;SDS011;21574;51.538;-0.084;2022-09-25T06:24:22;1.95;;;0.80;;
34230;SDS011;21574;51.538;-0.084;2022-09-25T06:26:48;6.22;;;0.70;;
34230;SDS011;21574;51.538;-0.084;2022-09-25T06:29:14;2.53;;;0.82;;
34230;SDS011;21574;51.538;-0.084;2022-09-25T06:31:39;1.17;;;0.60;;
34230;SDS011;21574;51.538;-0.084;2022-09-25T06:34:05;4.05;;;1.08;;
34230;SDS011;21574;51.538;-0.084;2022-09-25T06:36:33;2.30;;;1.00;;
34230;SDS011;21574;51.538;-0.084;2022-09-25T06:38:58;1.50;;;0.70;;
34230;SDS011;21574;51.538;-0.084;2022-09-25T06:41:24;3.80;;;0.75;;
34230;SDS011;21574;51.538;-0.084;2022-09-25T06:43:50;4.25;;;0.82;;
34230;SDS011;21574;51.538;-0.084;2022-09-25T06:46:16;2.40;;;0.70;;
34230;SDS011;21574;51.538;-0.084;2022-09-25T06:48:47;5.60;;;0.70;;
34230;SDS011;21574;51.538;-0.084;2022-09-25T06:51:15;3.15;;;0.90;;
34230;SDS011;21574;51.538;-0.084;2022-09-25T06:53:42;8.40;;;0.63;;
34230;SDS011;21574;51.538;-0.084;2022-09-25T06:56:08;4.72;;;0.80;;
34230;SDS011;21574;51.538;-0.084;2022-09-25T06:58:33;3.47;;;0.90;;
34230;SDS011;21574;51.538;-0.084;2022-09-25T07:01:00;3.60;;;0.77;;
34230;SDS011;21574;51.538;-0.084;2022-09-25T07:03:26;3.72;;;0.73;;
34230;SDS011;21574;51.538;-0.084;2022-09-25T07:06:11;2.53;;;0.75;;
34230;SDS011;21574;51.538;-0.084;2022-09-25T07:08:38;1.67;;;0.70;;
34230;SDS011;21574;51.538;-0.084;2022-09-25T07:11:04;4.32;;;0.98;;
34230;SDS011;21574;51.538;-0.084;2022-09-25T07:13:32;2.28;;;0.93;;
34230;SDS011;21574;51.538;-0.084;2022-09-25T07:18:26;4.75;;;0.73;;
34230;SDS011;21574;51.538;-0.084;2022-09-25T07:20:52;2.92;;;0.80;;
34230;SDS011;21574;51.538;-0.084;2022-09-25T07:23:23;1.35;;;0.60;;
34230;SDS011;21574;51.538;-0.084;2022-09-25T07:25:49;1.48;;;0.75;;
34230;SDS011;21574;51.538;-0.084;2022-09-25T07:28:15;2.83;;;0.75;;
34230;SDS011;21574;51.538;-0.084;2022-09-25T07:30:42;3.28;;;0.82;;
34230;SDS011;21574;51.538;-0.084;2022-09-25T07:33:08;4.05;;;1.08;;
34230;SDS011;21574;51.538;-0.084;2022-09-25T07:35:35;1.30;;;0.60;;
34230;SDS011;21574;51.538;-0.084;2022-09-25T07:38:01;5.80;;;0.80;;
34230;SDS011;21574;51.538;-0.084;2022-09-25T07:40:27;1.83;;;0.77;;
34230;SDS011;21574;51.538;-0.084;2022-09-25T07:42:59;2.15;;;0.90;;
34230;SDS011;21574;51.538;-0.084;2022-09-25T07:45:26;1.20;;;0.80;;
34230;SDS011;21574;51.538;-0.084;2022-09-25T07:47:58;1.98;;;0.52;;
34230;SDS011;21574;51.538;-0.084;2022-09-25T07:50:25;1.58;;;0.60;;
34230;SDS011;21574;51.538;-0.084;2022-09-25T07:52:54;3.63;;;0.80;;
34230;SDS011;21574;51.538;-0.084;2022-09-25T07:55:20;2.40;;;0.70;;
34230;SDS011;21574;51.538;-0.084;2022-09-25T07:57:46;2.47;;;0.82;;
34230;SDS011;21574;51.538;-0.084;2022-09-25T08:00:13;1.75;;;0.70;;
34230;SDS011;21574;51.538;-0.084;2022-09-25T08:02:39;1.80;;;0.80;;
34230;SDS011;21574;51.538;-0.084;2022-09-25T08:05:04;2.95;;;0.68;;
34230;SDS011;21574;51.538;-0.084;2022-09-25T08:07:30;0.60;;;0.50;;
34230;SDS011;21574;51.538;-0.084;2022-09-25T08:09:56;3.22;;;0.88;;
34230;SDS011;21574;51.538;-0.084;2022-09-25T08:12:22;3.58;;;0.70;;
34230;SDS011;21574;51.538;-0.084;2022-09-25T08:14:49;5.78;;;0.73;;
34230;SDS011;21574;51.538;-0.084;2022-09-25T08:17:15;1.63;;;0.77;;
34230;SDS011;21574;51.538;-0.084;2022-09-25T08:19:41;2.28;;;0.80;;
34230;SDS011;21574;51.538;-0.084;2022-09-25T08:22:06;1.50;;;0.65;;
34230;SDS011;21574;51.538;-0.084;2022-09-25T08:24:32;3.97;;;0.73;;
34230;SDS011;21574;51.538;-0.084;2022-09-25T08:26:57;2.78;;;0.77;;
34230;SDS011;21574;51.538;-0.084;2022-09-25T08:29:23;2.88;;;0.60;;
34230;SDS011;21574;51.538;-0.084;2022-09-25T08:31:49;1.52;;;0.70;;
34230;SDS011;21574;51.538;-0.084;2022-09-25T08:34:14;1.02;;;0.55;;
34230;SDS011;21574;51.538;-0.084;2022-09-25T08:36:41;1.67;;;0.60;;
34230;SDS011;21574;51.538;-0.084;2022-09-25T08:39:06;1.00;;;0.70;;
34230;SDS011;21574;51.538;-0.084;2022-09-25T08:41:51;1.95;;;0.63;;
34230;SDS011;21574;51.538;-0.084;2022-09-25T08:52:35;3.28;;;1.10;;
34230;SDS011;21574;51.538;-0.084;2022-09-25T08:55:07;3.85;;;0.68;;
34230;SDS011;21574;51.538;-0.084;2022-09-25T08:57:40;5.20;;;0.98;;
34230;SDS011;21574;51.538;-0.084;2022-09-25T09:00:15;5.68;;;0.82;;
34230;SDS011;21574;51.538;-0.084;2022-09-25T09:02:57;6.88;;;1.80;;
34230;SDS011;21574;51.538;-0.084;2022-09-25T09:05:28;14.25;;;2.25;;
34230;SDS011;21574;51.538;-0.084;2022-09-25T09:08:05;14.13;;;2.55;;
34230;SDS011;21574;51.538;-0.084;2022-09-25T09:10:59;13.60;;;2.40;;
34230;SDS011;21574;51.538;-0.084;2022-09-25T09:13:34;7.72;;;2.03;;
34230;SDS011;21574;51.538;-0.084;2022-09-25T09:18:45;16.00;;;2.42;;
34230;SDS011;21574;51.538;-0.084;2022-09-25T09:21:23;10.10;;;2.67;;
34230;SDS011;21574;51.538;-0.084;2022-09-25T09:26:38;7.72;;;2.10;;
34230;SDS011;21574;51.538;-0.084;2022-09-25T09:37:27;12.38;;;2.03;;
34230;SDS011;21574;51.538;-0.084;2022-09-25T09:40:19;9.18;;;1.75;;
34230;SDS011;21574;51.538;-0.084;2022-09-25T09:42:57;9.50;;;2.10;;
34230;SDS011;21574;51.538;-0.084;2022-09-25T09:45:53;11.23;;;1.95;;
34230;SDS011;21574;51.538;-0.084;2022-09-25T09:51:10;12.13;;;2.10;;
34230;SDS011;21574;51.538;-0.084;2022-09-25T09:53:46;11.32;;;2.30;;
34230;SDS011;21574;51.538;-0.084;2022-09-25T09:56:21;14.90;;;2.00;;
34230;SDS011;21574;51.538;-0.084;2022-09-25T09:58:54;8.48;;;1.90;;
34230;SDS011;21574;51.538;-0.084;2022-09-25T10:01:35;10.20;;;2.15;;
34230;SDS011;21574;51.538;-0.084;2022-09-25T10:04:10;8.27;;;1.70;;
34230;SDS011;21574;51.538;-0.084;2022-09-25T10:06:51;7.55;;;1.60;;
34230;SDS011;21574;51.538;-0.084;2022-09-25T10:09:22;6.93;;;1.70;;
34230;SDS011;21574;51.538;-0.084;2022-09-25T10:11:51;7.85;;;1.60;;
34230;SDS011;21574;51.538;-0.084;2022-09-25T10:14:25;7.22;;;1.50;;
34230;SDS011;21574;51.538;-0.084;2022-09-25T10:16:57;9.60;;;1.52;;
34230;SDS011;21574;51.538;-0.084;2022-09-25T10:19:23;6.63;;;1.80;;
34230;SDS011;21574;51.538;-0.084;2022-09-25T10:21:57;6.18;;;1.65;;
34230;SDS011;21574;51.538;-0.084;2022-09-25T10:27:23;5.20;;;1.63;;
34230;SDS011;21574;51.538;-0.084;2022-09-25T10:35:23;4.95;;;1.40;;
34230;SDS011;21574;51.538;-0.084;2022-09-25T10:38:04;5.05;;;1.40;;
34230;SDS011;21574;51.538;-0.084;2022-09-25T10:40:43;3.58;;;1.38;;
34230;SDS011;21574;51.538;-0.084;2022-09-25T10:43:21;10.68;;;1.33;;
34230;SDS011;21574;51.538;-0.084;2022-09-25T10:45:48;3.42;;;0.98;;
34230;SDS011;21574;51.538;-0.084;2022-09-25T10:48:34;7.18;;;1.17;;
34230;SDS011;21574;51.538;-0.084;2022-09-25T10:51:20;7.22;;;1.55;;
34230;SDS011;21574;51.538;-0.084;2022-09-25T10:54:09;4.80;;;1.33;;
34230;SDS011;21574;51.538;-0.084;2022-09-25T10:56:35;3.58;;;1.17;;
34230;SDS011;21574;51.538;-0.084;2022-09-25T10:59:02;5.07;;;1.35;;
34230;SDS011;21574;51.538;-0.084;2022-09-25T11:01:39;2.95;;;1.05;;
34230;SDS011;21574;51.538;-0.084;2022-09-25T11:04:22;4.80;;;1.15;;
34230;SDS011;21574;51.538;-0.084;2022-09-25T11:06:57;2.75;;;1.30;;
34230;SDS011;21574;51.538;-0.084;2022-09-25T11:09:29;4.85;;;1.38;;
34230;SDS011;21574;51.538;-0.084;2022-09-25T11:12:12;3.00;;;1.23;;
34230;SDS011;21574;51.538;-0.084;2022-09-25T11:14:52;6.28;;;1.10;;
34230;SDS011;21574;51.538;-0.084;2022-09-25T11:17:40;4.90;;;0.95;;
34230;SDS011;21574;51.538;-0.084;2022-09-25T11:36:24;2.88;;;0.90;;
34230;SDS011;21574;51.538;-0.084;2022-09-25T11:39:12;5.22;;;1.00;;
34230;SDS011;21574;51.538;-0.084;2022-09-25T11:44:46;3.95;;;1.00;;
34230;SDS011;21574;51.538;-0.084;2022-09-25T11:47:31;2.35;;;0.88;;
34230;SDS011;21574;51.538;-0.084;2022-09-25T11:49:58;4.03;;;0.80;;
34230;SDS011;21574;51.538;-0.084;2022-09-25T11:52:36;7.55;;;0.95;;
34230;SDS011;21574;51.538;-0.084;2022-09-25T12:00:07;2.90;;;1.05;;
34230;SDS011;21574;51.538;-0.084;2022-09-25T12:07:50;3.85;;;0.90;;
34230;SDS011;21574;51.538;-0.084;2022-09-25T12:19:12;2.28;;;0.85;;
34230;SDS011;21574;51.538;-0.084;2022-09-25T12:21:56;2.42;;;0.60;;
34230;SDS011;21574;51.538;-0.084;2022-09-25T12:30:34;1.98;;;0.90;;
34230;SDS011;21574;51.538;-0.084;2022-09-25T12:33:22;2.33;;;1.00;;
34230;SDS011;21574;51.538;-0.084;2022-09-25T12:36:14;1.48;;;0.88;;
34230;SDS011;21574;51.538;-0.084;2022-09-25T12:41:28;2.15;;;0.70;;
34230;SDS011;21574;51.538;-0.084;2022-09-25T12:47:04;2.63;;;0.77;;
34230;SDS011;21574;51.538;-0.084;2022-09-25T12:52:11;3.33;;;0.98;;
34230;SDS011;21574;51.538;-0.084;2022-09-25T12:54:54;3.75;;;1.10;;
34230;SDS011;21574;51.538;-0.084;2022-09-25T12:57:22;2.38;;;0.80;;
34230;SDS011;21574;51.538;-0.084;2022-09-25T13:00:07;3.13;;;1.30;;
34230;SDS011;21574;51.538;-0.084;2022-09-25T13:06:09;5.57;;;1.25;;
34230;SDS011;21574;51.538;-0.084;2022-09-25T13:08:58;8.00;;;0.93;;
34230;SDS011;21574;51.538;-0.084;2022-09-25T13:11:42;1.90;;;0.88;;
34230;SDS011;21574;51.538;-0.084;2022-09-25T13:17:16;7.57;;;0.98;;
34230;SDS011;21574;51.538;-0.084;2022-09-25T13:19:42;1.98;;;0.90;;
34230;SDS011;21574;51.538;-0.084;2022-09-25T13:22:29;4.28;;;0.85;;
34230;SDS011;21574;51.538;-0.084;2022-09-25T13:25:03;1.58;;;0.77;;
34230;SDS011;21574;51.538;-0.084;2022-09-25T13:27:44;1.60;;;0.80;;
34230;SDS011;21574;51.538;-0.084;2022-09-25T13:30:23;3.67;;;0.80;;
34230;SDS011;21574;51.538;-0.084;2022-09-25T13:32:52;3.17;;;0.90;;
34230;SDS011;21574;51.538;-0.084;2022-09-25T13:35:23;0.82;;;0.60;;
34230;SDS011;21574;51.538;-0.084;2022-09-25T13:37:49;2.45;;;0.80;;
34230;SDS011;21574;51.538;-0.084;2022-09-25T13:40:18;4.57;;;0.98;;
34230;SDS011;21574;51.538;-0.084;2022-09-25T13:43:22;2.55;;;0.80;;
34230;SDS011;21574;51.538;-0.084;2022-09-25T13:48:38;5.03;;;0.60;;
34230;SDS011;21574;51.538;-0.084;2022-09-25T14:01:49;2.45;;;0.73;;
34230;SDS011;21574;51.538;-0.084;2022-09-25T14:04:19;2.65;;;0.60;;
34230;SDS011;21574;51.538;-0.084;2022-09-25T14:06:49;3.35;;;0.73;;
34230;SDS011;21574;51.538;-0.084;2022-09-25T14:09:23;1.55;;;0.80;;
34230;SDS011;21574;51.538;-0.084;2022-09-25T14:12:00;1.38;;;0.60;;
34230;SDS011;21574;51.538;-0.084;2022-09-25T14:17:15;1.58;;;0.60;;
34230;SDS011;21574;51.538;-0.084;2022-09-25T14:19:42;2.10;;;0.52;;
34230;SDS011;21574;51.538;-0.084;2022-09-25T14:22:20;2.25;;;0.85;;
34230;SDS011;21574;51.538;-0.084;2022-09-25T14:24:53;3.20;;;0.80;;
34230;SDS011;21574;51.538;-0.084;2022-09-25T14:27:21;2.30;;;0.80;;
34230;SDS011;21574;51.538;-0.084;2022-09-25T14:29:49;2.70;;;0.80;;
34230;SDS011;21574;51.538;-0.084;2022-09-25T14:32:27;2.95;;;0.70;;
34230;SDS011;21574;51.538;-0.084;2022-09-25T14:35:00;4.13;;;0.70;;
34230;SDS011;21574;51.538;-0.084;2022-09-25T14:40:22;1.17;;;0.80;;
34230;SDS011;21574;51.538;-0.084;2022-09-25T14:51:12;4.18;;;0.80;;
34230;SDS011;21574;51.538;-0.084;2022-09-25T14:53:43;1.70;;;0.60;;
34230;SDS011;21574;51.538;-0.084;2022-09-25T14:56:12;3.80;;;0.80;;
34230;SDS011;21574;51.538;-0.084;2022-09-25T15:01:27;3.13;;;0.68;;
34230;SDS011;21574;51.538;-0.084;2022-09-25T15:03:58;2.35;;;0.50;;
34230;SDS011;21574;51.538;-0.084;2022-09-25T15:06:32;1.63;;;0.90;;
34230;SDS011;21574;51.538;-0.084;2022-09-25T15:09:18;2.05;;;0.70;;
34230;SDS011;21574;51.538;-0.084;2022-09-25T15:11:52;0.73;;;0.50;;
34230;SDS011;21574;51.538;-0.084;2022-09-25T15:14:19;2.22;;;0.70;;
34230;SDS011;21574;51.538;-0.084;2022-09-25T15:16:44;4.25;;;0.95;;
34230;SDS011;21574;51.538;-0.084;2022-09-25T15:19:31;1.38;;;0.60;;
34230;SDS011;21574;51.538;-0.084;2022-09-25T15:22:00;2.40;;;0.60;;
34230;SDS011;21574;51.538;-0.084;2022-09-25T15:24:32;2.92;;;0.80;;
34230;SDS011;21574;51.538;-0.084;2022-09-25T15:27:00;1.30;;;0.60;;
34230;SDS011;21574;51.538;-0.084;2022-09-25T15:29:32;1.77;;;0.60;;
34230;SDS011;21574;51.538;-0.084;2022-09-25T15:32:00;1.35;;;0.68;;
34230;SDS011;21574;51.538;-0.084;2022-09-25T15:34:27;2.85;;;0.73;;
34230;SDS011;21574;51.538;-0.084;2022-09-25T15:37:05;3.33;;;0.60;;
34230;SDS011;21574;51.538;-0.084;2022-09-25T15:39:52;3.70;;;0.70;;
34230;SDS011;21574;51.538;-0.084;2022-09-25T15:42:18;1.02;;;0.70;;
34230;SDS011;21574;51.538;-0.084;2022-09-25T15:44:44;1.90;;;0.65;;
34230;SDS011;21574;51.538;-0.084;2022-09-25T15:50:01;1.85;;;0.70;;
34230;SDS011;21574;51.538;-0.084;2022-09-25T15:52:28;2.70;;;0.57;;
34230;SDS011;21574;51.538;-0.084;2022-09-25T15:55:16;1.17;;;0.68;;
34230;SDS011;21574;51.538;-0.084;2022-09-25T15:57:42;0.60;;;0.50;;
34230;SDS011;21574;51.538;-0.084;2022-09-25T16:00:15;1.90;;;0.40;;
34230;SDS011;21574;51.538;-0.084;2022-09-25T16:06:07;0.60;;;0.50;;
34230;SDS011;21574;51.538;-0.084;2022-09-25T16:08:38;5.30;;;0.88;;
34230;SDS011;21574;51.538;-0.084;2022-09-25T16:13:46;1.52;;;0.75;;
34230;SDS011;21574;51.538;-0.084;2022-09-25T16:18:47;9.30;;;2.50;;
34230;SDS011;21574;51.538;-0.084;2022-09-25T16:23:49;6.15;;;2.60;;
34230;SDS011;21574;51.538;-0.084;2022-09-25T16:26:17;5.15;;;2.33;;
34230;SDS011;21574;51.538;-0.084;2022-09-25T16:31:50;4.63;;;1.90;;
34230;SDS011;21574;51.538;-0.084;2022-09-25T16:36:49;3.90;;;1.45;;
34230;SDS011;21574;51.538;-0.084;2022-09-25T16:41:49;10.15;;;3.67;;
34230;SDS011;21574;51.538;-0.084;2022-09-25T16:44:27;6.82;;;2.90;;
34230;SDS011;21574;51.538;-0.084;2022-09-25T16:47:10;7.68;;;3.25;;
34230;SDS011;21574;51.538;-0.084;2022-09-25T16:49:38;8.43;;;2.80;;
34230;SDS011;21574;51.538;-0.084;2022-09-25T16:52:04;7.15;;;3.17;;
34230;SDS011;21574;51.538;-0.084;2022-09-25T16:54:32;8.75;;;3.03;;
34230;SDS011;21574;51.538;-0.084;2022-09-25T16:57:01;9.05;;;2.65;;
34230;SDS011;21574;51.538;-0.084;2022-09-25T16:59:26;6.63;;;2.47;;
34230;SDS011;21574;51.538;-0.084;2022-09-25T17:01:54;8.35;;;2.50;;
34230;SDS011;21574;51.538;-0.084;2022-09-25T17:04:27;5.85;;;2.40;;
34230;SDS011;21574;51.538;-0.084;2022-09-25T17:06:55;5.97;;;2.40;;
34230;SDS011;21574;51.538;-0.084;2022-09-25T17:09:23;5.88;;;2.42;;
34230;SDS011;21574;51.538;-0.084;2022-09-25T17:11:50;4.35;;;2.00;;
34230;SDS011;21574;51.538;-0.084;2022-09-25T17:14:21;5.10;;;1.58;;
34230;SDS011;21574;51.538;-0.084;2022-09-25T17:16:48;2.20;;;1.10;;
34230;SDS011;21574;51.538;-0.084;2022-09-25T17:21:42;2.13;;;1.00;;
34230;SDS011;21574;51.538;-0.084;2022-09-25T17:24:10;3.42;;;1.42;;
34230;SDS011;21574;51.538;-0.084;2022-09-25T17:26:37;3.50;;;1.48;;
34230;SDS011;21574;51.538;-0.084;2022-09-25T17:29:03;3.95;;;1.30;;
34230;SDS011;21574;51.538;-0.084;2022-09-25T17:31:29;3.15;;;1.02;;
34230;SDS011;21574;51.538;-0.084;2022-09-25T17:33:55;9.20;;;0.95;;
34230;SDS011;21574;51.538;-0.084;2022-09-25T17:36:21;4.32;;;1.20;;
34230;SDS011;21574;51.538;-0.084;2022-09-25T17:38:46;2.80;;;1.00;;
34230;SDS011;21574;51.538;-0.084;2022-09-25T17:41:19;3.58;;;1.00;;
34230;SDS011;21574;51.538;-0.084;2022-09-25T17:43:52;2.35;;;1.00;;
34230;SDS011;21574;51.538;-0.084;2022-09-25T17:46:18;3.10;;;1.25;;
34230;SDS011;21574;51.538;-0.084;2022-09-25T17:48:44;1.77;;;0.85;;
34230;SDS011;21574;51.538;-0.084;2022-09-25T17:51:17;3.03;;;1.13;;
34230;SDS011;21574;51.538;-0.084;2022-09-25T17:53:45;1.58;;;0.90;;
34230;SDS011;21574;51.538;-0.084;2022-09-25T17:56:14;2.85;;;1.00;;
34230;SDS011;21574;51.538;-0.084;2022-09-25T17:58:40;2.23;;;0.80;;
34230;SDS011;21574;51.538;-0.084;2022-09-25T18:03:48;1.75;;;0.82;;